Time;durP1;ratioP1;P1;durP2;ratioP2;P2;SDS_P1;SDS_P2;PMS_P1;PMS_P2;Temp;Humidity;BMP_temperature;BMP_pressure;BME280_temperature;BME280_humidity;BME280_pressure;Samples;Min_cycle;Max_cycle;Signal;HPM_P1;HPM_P2
2023/04/20 00:00:16;;;;;;;4.20;1.90;;;8.40;99.90;;;;;;4877725;29;20049;-80
2023/04/20 00:02:44;;;;;;;4.75;1.75;;;8.40;99.90;;;;;;4862465;29;20045;-79
2023/04/20 00:05:11;;;;;;;4.95;1.90;;;8.40;99.90;;;;;;4858909;29;20046;-79
2023/04/20 00:07:40;;;;;;;5.97;1.90;;;8.50;99.90;;;;;;4859177;29;20064;-79
2023/04/20 00:10:07;;;;;;;3.30;1.73;;;8.50;99.90;;;;;;4844093;29;20056;-79
2023/04/20 00:12:35;;;;;;;5.57;1.70;;;8.50;99.90;;;;;;4874078;29;20384;-79
2023/04/20 00:15:01;;;;;;;4.43;1.83;;;8.50;99.90;;;;;;4858711;29;20046;-80
2023/04/20 00:17:28;;;;;;;6.47;1.75;;;8.50;99.90;;;;;;4873764;29;20049;-79
2023/04/20 00:19:55;;;;;;;4.82;1.77;;;8.50;99.90;;;;;;4873854;29;20073;-79
2023/04/20 00:22:22;;;;;;;10.50;1.95;;;8.50;99.90;;;;;;4873988;29;20042;-80
2023/04/20 00:24:48;;;;;;;6.95;1.92;;;8.50;99.90;;;;;;4860773;29;20042;-80
2023/04/20 00:27:15;;;;;;;4.88;2.17;;;8.50;99.90;;;;;;4861946;29;20049;-79
2023/04/20 00:29:42;;;;;;;3.78;1.75;;;8.50;99.90;;;;;;4847086;29;20048;-79
2023/04/20 00:32:08;;;;;;;4.93;1.73;;;8.50;99.90;;;;;;4862123;29;20090;-79
2023/04/20 00:34:35;;;;;;;5.03;1.80;;;8.50;99.90;;;;;;4862035;29;20053;-79
2023/04/20 00:37:02;;;;;;;6.07;1.98;;;8.50;99.90;;;;;;4862009;29;20060;-79
2023/04/20 00:39:28;;;;;;;4.75;1.75;;;8.50;99.90;;;;;;4846435;29;20114;-79
2023/04/20 00:42:06;;;;;;;4.88;1.92;;;8.50;99.90;;;;;;4846625;29;20049;-79
2023/04/20 00:44:33;;;;;;;4.78;1.70;;;8.50;99.90;;;;;;4876761;29;20558;-79
2023/04/20 00:47:00;;;;;;;3.97;1.88;;;8.50;99.90;;;;;;4858272;29;20042;-79
2023/04/20 00:49:29;;;;;;;5.10;1.90;;;8.50;99.90;;;;;;4858634;29;20049;-79
2023/04/20 00:51:59;;;;;;;4.95;1.88;;;8.50;99.90;;;;;;4873373;29;20049;-79
2023/04/20 00:54:28;;;;;;;6.00;1.65;;;8.50;99.90;;;;;;4873546;29;20053;-79
2023/04/20 00:56:58;;;;;;;3.95;1.80;;;8.50;99.90;;;;;;4877427;29;20498;-79
2023/04/20 00:59:25;;;;;;;5.68;2.00;;;8.50;99.90;;;;;;4861905;29;20069;-79
2023/04/20 01:01:51;;;;;;;7.82;1.90;;;8.50;99.90;;;;;;4861442;29;20049;-79
2023/04/20 01:04:19;;;;;;;5.20;2.00;;;8.50;99.90;;;;;;4876722;29;20522;-79
2023/04/20 01:06:45;;;;;;;6.13;1.70;;;8.50;99.90;;;;;;4891596;29;20041;-79
2023/04/20 01:09:12;;;;;;;5.72;1.77;;;8.50;99.90;;;;;;4876455;29;20522;-79
2023/04/20 01:11:39;;;;;;;5.32;1.83;;;8.40;99.90;;;;;;4880198;29;20077;-79
2023/04/20 01:14:06;;;;;;;4.80;1.77;;;8.40;99.90;;;;;;4849958;29;20049;-79
2023/04/20 01:16:36;;;;;;;3.08;1.55;;;8.40;99.90;;;;;;4895552;29;20048;-79
2023/04/20 01:19:03;;;;;;;9.52;2.10;;;8.40;99.90;;;;;;4879886;29;20133;-79
2023/04/20 01:21:30;;;;;;;4.45;2.00;;;8.40;99.90;;;;;;4865317;29;20450;-79
2023/04/20 01:23:56;;;;;;;3.90;1.63;;;8.40;99.90;;;;;;4864707;29;20068;-79
2023/04/20 01:26:24;;;;;;;3.00;1.60;;;8.40;99.90;;;;;;4880284;29;20041;-80
2023/04/20 01:28:51;;;;;;;4.38;1.80;;;8.40;99.90;;;;;;4895216;29;20528;-79
2023/04/20 01:31:18;;;;;;;3.35;1.60;;;8.40;99.90;;;;;;4895431;29;20136;-79
2023/04/20 01:33:45;;;;;;;6.05;2.05;;;8.40;99.90;;;;;;4879690;29;20160;-80
2023/04/20 01:36:12;;;;;;;4.65;1.80;;;8.30;99.90;;;;;;4864610;29;20070;-79
2023/04/20 01:38:40;;;;;;;9.02;2.40;;;8.30;99.90;;;;;;4879745;29;20053;-79
2023/04/20 01:41:08;;;;;;;4.30;1.73;;;8.30;99.90;;;;;;4879620;29;20041;-79
2023/04/20 01:43:37;;;;;;;8.57;2.03;;;8.20;99.90;;;;;;4864934;29;20132;-79
2023/04/20 01:46:04;;;;;;;5.15;1.90;;;8.20;99.90;;;;;;4864502;29;20041;-79
2023/04/20 01:48:31;;;;;;;5.70;2.00;;;8.20;99.90;;;;;;4864522;29;20045;-79
2023/04/20 01:50:58;;;;;;;5.78;1.60;;;8.10;99.90;;;;;;4864323;29;20072;-79
2023/04/20 01:53:25;;;;;;;5.65;1.92;;;8.00;99.90;;;;;;4865190;29;20133;-80
2023/04/20 01:55:52;;;;;;;4.35;1.60;;;8.00;99.90;;;;;;4883062;29;20088;-79
2023/04/20 01:58:19;;;;;;;4.22;1.60;;;8.00;99.90;;;;;;4882405;29;20089;-79
2023/04/20 02:00:45;;;;;;;4.95;1.95;;;7.90;99.90;;;;;;4873303;29;20049;-80
2023/04/20 02:03:12;;;;;;;5.60;1.88;;;7.80;99.90;;;;;;4863788;29;20041;-79
2023/04/20 02:05:39;;;;;;;5.55;1.80;;;7.80;99.90;;;;;;4864109;29;20052;-79
2023/04/20 02:08:06;;;;;;;5.57;2.15;;;7.80;99.90;;;;;;4863885;29;20049;-79
2023/04/20 02:10:32;;;;;;;4.60;1.80;;;7.80;99.90;;;;;;4894434;29;20395;-79
2023/04/20 02:12:59;;;;;;;5.93;2.35;;;7.80;99.90;;;;;;4864336;29;20041;-79
2023/04/20 02:15:26;;;;;;;6.43;1.98;;;7.80;99.90;;;;;;4879027;29;20133;-79
2023/04/20 02:17:52;;;;;;;5.28;2.10;;;7.80;99.90;;;;;;4879090;29;20053;-78
2023/04/20 02:20:19;;;;;;;5.30;1.60;;;7.90;99.90;;;;;;4863801;29;20056;-79
2023/04/20 02:22:46;;;;;;;5.28;1.67;;;7.80;99.90;;;;;;4863879;29;20057;-79
2023/04/20 02:25:13;;;;;;;5.13;1.85;;;7.90;99.90;;;;;;4863582;29;20174;-79
2023/04/20 02:27:40;;;;;;;8.27;2.10;;;7.90;99.90;;;;;;4879033;29;20049;-79
2023/04/20 02:30:08;;;;;;;6.53;1.50;;;7.90;99.90;;;;;;4863694;29;20801;-79
2023/04/20 02:32:35;;;;;;;5.07;1.98;;;7.90;99.90;;;;;;4894083;29;20052;-79
2023/04/20 02:35:05;;;;;;;5.07;1.90;;;8.00;99.90;;;;;;4863666;29;20052;-79
2023/04/20 02:37:32;;;;;;;4.78;1.65;;;7.90;99.90;;;;;;4878707;29;20045;-79
2023/04/20 02:39:59;;;;;;;6.82;1.90;;;8.10;99.90;;;;;;4863650;29;20041;-80
2023/04/20 02:42:26;;;;;;;4.22;2.13;;;8.10;99.90;;;;;;4860268;29;20721;-79
2023/04/20 02:44:52;;;;;;;6.63;1.92;;;8.20;99.90;;;;;;4860342;29;20103;-79
2023/04/20 02:47:19;;;;;;;4.22;1.67;;;8.20;99.90;;;;;;4860326;29;20503;-79
2023/04/20 02:49:46;;;;;;;5.75;1.90;;;8.20;99.90;;;;;;4875489;29;20080;-80
2023/04/20 02:52:13;;;;;;;5.28;1.80;;;8.20;99.90;;;;;;4861720;29;20171;-79
2023/04/20 02:54:39;;;;;;;6.55;1.70;;;8.20;99.90;;;;;;4849168;29;20042;-79
2023/04/20 02:57:06;;;;;;;4.63;1.70;;;8.20;99.90;;;;;;4893860;29;20053;-79
2023/04/20 02:59:33;;;;;;;3.47;1.50;;;8.20;99.90;;;;;;4863110;29;20045;-79
2023/04/20 03:01:59;;;;;;;6.90;2.05;;;8.20;99.90;;;;;;4863358;29;20117;-79
2023/04/20 03:04:26;;;;;;;6.70;2.05;;;8.30;99.90;;;;;;4875073;29;20046;-79
2023/04/20 03:06:53;;;;;;;5.18;1.70;;;8.20;99.90;;;;;;4859862;29;20495;-79
2023/04/20 03:09:20;;;;;;;4.30;1.58;;;8.20;99.90;;;;;;4859670;29;20057;-79
2023/04/20 03:11:47;;;;;;;5.05;1.80;;;8.20;99.90;;;;;;4859669;29;20117;-79
2023/04/20 03:14:13;;;;;;;10.30;1.83;;;8.20;99.90;;;;;;4859872;29;20046;-79
2023/04/20 03:16:40;;;;;;;4.57;1.45;;;8.20;99.90;;;;;;4874926;29;20049;-79
2023/04/20 03:19:07;;;;;;;3.75;1.65;;;8.20;99.90;;;;;;4874578;29;20110;-79
2023/04/20 03:21:34;;;;;;;5.35;1.83;;;8.20;99.90;;;;;;4862019;29;20033;-79
2023/04/20 03:24:01;;;;;;;5.15;1.67;;;8.20;99.90;;;;;;4877959;29;20041;-79
2023/04/20 03:26:28;;;;;;;5.00;1.70;;;8.20;99.90;;;;;;4847465;29;20116;-79
2023/04/20 03:28:54;;;;;;;5.32;1.90;;;8.10;99.90;;;;;;4878119;29;20045;-79
2023/04/20 03:31:21;;;;;;;5.07;1.80;;;8.20;99.90;;;;;;4877959;29;20113;-79
2023/04/20 03:33:48;;;;;;;4.63;1.80;;;8.20;99.90;;;;;;4877228;29;20056;-79
2023/04/20 03:36:14;;;;;;;3.67;1.60;;;8.20;99.90;;;;;;4847409;29;20152;-79
2023/04/20 03:38:41;;;;;;;5.82;1.67;;;8.20;99.90;;;;;;4847497;29;20068;-79
2023/04/20 03:41:08;;;;;;;6.25;1.98;;;8.20;99.90;;;;;;4877697;29;20141;-79
2023/04/20 03:43:34;;;;;;;4.72;1.80;;;8.20;99.90;;;;;;4862441;29;20042;-79
2023/04/20 03:46:01;;;;;;;4.07;1.60;;;8.10;99.90;;;;;;4877724;29;20041;-79
2023/04/20 03:48:28;;;;;;;6.00;1.80;;;8.10;99.90;;;;;;4862103;29;20053;-79
2023/04/20 03:50:54;;;;;;;5.10;1.85;;;8.10;99.90;;;;;;4877969;29;20085;-79
2023/04/20 03:53:21;;;;;;;5.22;1.70;;;8.10;99.90;;;;;;4876265;29;20045;-79
2023/04/20 03:55:48;;;;;;;6.57;1.60;;;8.10;99.90;;;;;;4862353;29;20122;-79
2023/04/20 03:58:14;;;;;;;3.92;1.88;;;8.10;99.90;;;;;;4861809;29;20061;-79
2023/04/20 04:00:41;;;;;;;4.97;1.45;;;8.10;99.90;;;;;;4877047;29;20132;-79
2023/04/20 04:03:08;;;;;;;3.53;1.48;;;8.00;99.90;;;;;;4877370;29;20045;-79
2023/04/20 04:05:35;;;;;;;5.70;1.73;;;8.00;99.90;;;;;;4873589;29;20077;-79
2023/04/20 04:08:02;;;;;;;4.63;1.88;;;8.00;99.90;;;;;;4859013;29;20537;-79
2023/04/20 04:10:28;;;;;;;3.78;1.50;;;8.00;99.90;;;;;;4843507;29;20555;-79
2023/04/20 04:12:55;;;;;;;4.25;1.70;;;8.10;99.90;;;;;;4873957;29;20578;-79
2023/04/20 04:15:22;;;;;;;2.55;1.27;;;8.00;99.90;;;;;;4855118;29;20057;-79
2023/04/20 04:17:48;;;;;;;7.55;1.70;;;8.00;99.90;;;;;;4876937;29;20049;-79
2023/04/20 04:20:15;;;;;;;5.25;2.13;;;8.00;99.90;;;;;;4876962;29;20128;-79
2023/04/20 04:22:42;;;;;;;6.40;1.55;;;8.00;99.90;;;;;;4877095;29;20379;-79
2023/04/20 04:25:10;;;;;;;4.15;1.90;;;7.90;99.90;;;;;;4877197;29;20121;-79
2023/04/20 04:27:38;;;;;;;8.75;1.92;;;7.90;99.90;;;;;;4877231;29;20057;-79
2023/04/20 04:30:06;;;;;;;4.85;1.85;;;7.90;99.90;;;;;;4861943;29;20048;-79
2023/04/20 04:32:36;;;;;;;4.20;1.70;;;7.90;99.90;;;;;;4861409;29;20101;-79
2023/04/20 04:35:03;;;;;;;4.22;1.65;;;7.80;99.90;;;;;;4861627;29;20486;-79
2023/04/20 04:37:30;;;;;;;2.92;1.40;;;7.70;99.90;;;;;;4846275;29;20046;-79
2023/04/20 04:40:01;;;;;;;5.45;1.60;;;7.60;99.90;;;;;;4846164;29;20049;-79
2023/04/20 04:42:29;;;;;;;6.82;1.98;;;7.60;99.90;;;;;;4861507;29;20041;-79
2023/04/20 04:44:57;;;;;;;3.80;1.73;;;7.50;99.90;;;;;;4875884;29;20190;-79
2023/04/20 04:47:24;;;;;;;5.03;2.10;;;7.40;99.90;;;;;;4846535;29;20050;-79
2023/04/20 04:49:50;;;;;;;4.15;1.73;;;7.40;99.90;;;;;;4861383;29;20522;-79
2023/04/20 04:52:17;;;;;;;5.18;1.58;;;7.30;99.90;;;;;;4861776;29;20049;-79
2023/04/20 04:54:44;;;;;;;5.00;1.60;;;7.30;99.90;;;;;;4876256;29;20068;-79
2023/04/20 04:57:10;;;;;;;4.03;1.70;;;7.30;99.90;;;;;;4875941;29;20057;-79
2023/04/20 04:59:37;;;;;;;7.13;1.90;;;7.20;99.90;;;;;;4861159;29;20053;-79
2023/04/20 05:02:04;;;;;;;4.43;1.85;;;7.20;99.90;;;;;;4861321;29;20628;-80
2023/04/20 05:04:30;;;;;;;7.18;2.17;;;7.10;99.90;;;;;;4861027;29;20102;-80
2023/04/20 05:06:57;;;;;;;3.80;1.58;;;7.10;99.90;;;;;;4876481;29;20041;-79
2023/04/20 05:09:24;;;;;;;5.20;2.03;;;7.10;99.90;;;;;;4846037;29;20056;-79
2023/04/20 05:11:51;;;;;;;5.47;2.05;;;7.00;99.90;;;;;;4846034;29;20570;-79
2023/04/20 05:14:17;;;;;;;7.30;1.90;;;7.00;99.90;;;;;;4846587;29;20049;-79
2023/04/20 05:16:44;;;;;;;5.47;1.85;;;7.00;99.90;;;;;;4861394;29;20774;-79
2023/04/20 05:19:11;;;;;;;6.75;2.00;;;6.90;99.90;;;;;;4857737;29;20069;-79
2023/04/20 05:21:38;;;;;;;3.45;1.83;;;6.90;99.90;;;;;;4873127;29;20098;-79
2023/04/20 05:24:05;;;;;;;4.40;2.00;;;6.90;99.90;;;;;;4842737;29;20045;-80
2023/04/20 05:26:32;;;;;;;5.07;1.98;;;6.90;99.90;;;;;;4873164;29;20045;-80
2023/04/20 05:28:58;;;;;;;4.88;1.75;;;6.90;99.90;;;;;;4852399;29;20045;-79
2023/04/20 05:31:25;;;;;;;5.28;2.10;;;6.80;99.90;;;;;;4865878;29;20052;-79
2023/04/20 05:33:52;;;;;;;3.72;1.73;;;6.90;99.90;;;;;;4869738;29;20124;-79
2023/04/20 05:36:19;;;;;;;6.32;1.92;;;6.90;99.90;;;;;;4882768;29;20037;-79
2023/04/20 05:38:46;;;;;;;3.33;1.80;;;6.90;99.90;;;;;;4884374;29;20053;-79
2023/04/20 05:41:12;;;;;;;5.10;1.70;;;6.90;99.90;;;;;;4901610;29;20049;-80
2023/04/20 05:43:39;;;;;;;4.35;1.83;;;6.90;99.90;;;;;;4873294;29;20080;-79
2023/04/20 05:46:06;;;;;;;4.40;1.83;;;6.90;99.90;;;;;;4885975;29;20053;-80
2023/04/20 05:48:33;;;;;;;7.72;1.90;;;6.90;99.90;;;;;;4909941;29;20045;-79
2023/04/20 05:50:59;;;;;;;6.88;2.10;;;6.90;99.90;;;;;;4864377;29;20132;-80
2023/04/20 05:53:26;;;;;;;3.88;1.98;;;6.90;99.90;;;;;;4864213;29;20057;-79
2023/04/20 05:55:53;;;;;;;7.47;2.42;;;6.90;99.90;;;;;;4880025;29;20051;-79
2023/04/20 05:58:20;;;;;;;5.45;1.75;;;6.90;99.90;;;;;;4882648;29;20529;-80
2023/04/20 06:00:46;;;;;;;6.47;1.90;;;6.90;99.90;;;;;;4870733;29;20053;-80
2023/04/20 06:03:13;;;;;;;5.00;2.05;;;6.90;99.90;;;;;;4849221;29;20121;-79
2023/04/20 06:05:40;;;;;;;4.00;1.55;;;6.90;99.90;;;;;;4864456;29;20049;-79
2023/04/20 06:08:06;;;;;;;3.45;1.80;;;6.90;99.90;;;;;;4863978;29;20114;-79
2023/04/20 06:10:33;;;;;;;4.15;1.88;;;6.90;99.90;;;;;;4860869;29;20046;-80
2023/04/20 06:13:00;;;;;;;3.15;1.63;;;6.90;99.90;;;;;;4860803;29;20053;-79
2023/04/20 06:15:27;;;;;;;5.95;2.28;;;6.90;99.90;;;;;;4860888;29;20054;-79
2023/04/20 06:17:53;;;;;;;5.35;1.95;;;6.80;99.90;;;;;;4860437;29;20056;-79
2023/04/20 06:20:21;;;;;;;3.45;1.73;;;6.90;99.90;;;;;;4845538;29;20038;-79
2023/04/20 06:22:48;;;;;;;7.57;2.13;;;6.80;99.90;;;;;;4876918;29;20133;-79
2023/04/20 06:25:15;;;;;;;4.70;2.00;;;6.80;99.90;;;;;;4879214;29;20073;-79
2023/04/20 06:27:41;;;;;;;4.45;1.92;;;6.80;99.90;;;;;;4863635;29;20060;-80
2023/04/20 06:30:09;;;;;;;5.90;2.40;;;6.70;99.90;;;;;;4879237;29;20136;-80
2023/04/20 06:32:36;;;;;;;7.22;2.17;;;6.70;99.90;;;;;;4878973;29;20108;-80
2023/04/20 06:35:04;;;;;;;6.32;2.40;;;6.70;99.90;;;;;;4881129;29;20406;-80
2023/04/20 06:37:30;;;;;;;6.10;2.47;;;6.60;99.90;;;;;;4877510;29;20410;-80
2023/04/20 06:39:57;;;;;;;4.13;2.33;;;6.60;99.90;;;;;;4879610;29;20097;-80
2023/04/20 06:42:24;;;;;;;4.53;2.22;;;6.60;99.90;;;;;;4866080;29;20041;-80
2023/04/20 06:44:51;;;;;;;4.50;2.30;;;6.60;99.90;;;;;;4860490;29;20044;-80
2023/04/20 06:47:17;;;;;;;5.28;2.90;;;6.50;99.90;;;;;;4871757;29;20037;-80
2023/04/20 06:49:44;;;;;;;6.63;2.38;;;6.40;99.90;;;;;;4869634;29;20048;-80
2023/04/20 06:52:11;;;;;;;6.22;2.60;;;6.40;99.90;;;;;;4853724;29;20045;-80
2023/04/20 06:54:37;;;;;;;5.68;2.13;;;6.30;99.90;;;;;;4871119;29;20084;-80
2023/04/20 06:57:04;;;;;;;5.65;2.10;;;6.30;99.90;;;;;;4878198;29;20046;-80
2023/04/20 06:59:31;;;;;;;5.57;2.10;;;6.30;99.90;;;;;;4865666;29;20579;-80
2023/04/20 07:01:59;;;;;;;6.15;2.55;;;6.30;99.90;;;;;;4863543;29;20060;-80
2023/04/20 07:04:25;;;;;;;5.18;2.40;;;6.20;99.90;;;;;;4863303;29;20041;-80
2023/04/20 07:06:52;;;;;;;6.95;2.50;;;6.20;99.90;;;;;;4877868;29;20049;-80
2023/04/20 07:09:19;;;;;;;5.13;2.10;;;6.20;99.90;;;;;;4862946;29;20053;-80
2023/04/20 07:11:46;;;;;;;5.68;2.40;;;6.10;99.90;;;;;;4878211;29;20046;-81
2023/04/20 07:14:13;;;;;;;5.38;2.40;;;6.10;99.90;;;;;;4863161;29;20132;-80
2023/04/20 07:16:39;;;;;;;6.28;2.50;;;6.20;99.90;;;;;;4862850;29;20045;-81
2023/04/20 07:19:06;;;;;;;5.90;2.10;;;6.20;99.90;;;;;;4862817;29;20053;-81
2023/04/20 07:21:34;;;;;;;3.78;2.10;;;6.20;99.90;;;;;;4862959;29;20046;-80
2023/04/20 07:24:01;;;;;;;6.50;2.20;;;6.20;99.90;;;;;;4863130;29;20189;-80
2023/04/20 07:26:28;;;;;;;6.07;2.30;;;6.20;99.90;;;;;;4878660;29;20045;-80
2023/04/20 07:28:54;;;;;;;5.20;2.50;;;6.20;99.90;;;;;;4859337;29;20154;-80
2023/04/20 07:31:21;;;;;;;4.47;2.00;;;6.20;99.90;;;;;;4858197;29;20097;-80
2023/04/20 07:33:48;;;;;;;9.20;2.60;;;6.30;99.90;;;;;;4881063;29;20127;-80
2023/04/20 07:36:14;;;;;;;4.70;2.00;;;6.30;99.90;;;;;;4896335;29;20049;-80
2023/04/20 07:38:41;;;;;;;7.78;2.40;;;6.30;99.90;;;;;;4865883;29;20048;-80
2023/04/20 07:41:09;;;;;;;6.03;2.40;;;6.40;99.90;;;;;;4865963;29;20095;-80
2023/04/20 07:43:37;;;;;;;6.68;2.28;;;6.40;99.90;;;;;;4896335;29;20041;-80
2023/04/20 07:46:04;;;;;;;4.97;2.22;;;6.40;99.90;;;;;;4881088;29;20045;-80
2023/04/20 07:48:33;;;;;;;4.25;2.40;;;6.40;99.90;;;;;;4880964;29;20052;-80
2023/04/20 07:51:00;;;;;;;7.63;2.60;;;6.40;99.90;;;;;;4866420;29;20049;-80
2023/04/20 07:53:29;;;;;;;7.05;2.20;;;6.50;99.90;;;;;;4880696;29;20056;-80
2023/04/20 07:55:56;;;;;;;10.40;2.90;;;6.50;99.90;;;;;;4862241;29;20077;-80
2023/04/20 07:58:23;;;;;;;7.07;2.67;;;6.50;99.90;;;;;;4877260;29;20575;-80
2023/04/20 08:00:50;;;;;;;6.93;2.60;;;6.60;99.90;;;;;;4877533;29;20056;-81
2023/04/20 08:03:16;;;;;;;5.35;2.65;;;6.70;99.90;;;;;;4877397;29;20049;-81
2023/04/20 08:05:43;;;;;;;8.30;2.75;;;6.80;99.90;;;;;;4862720;29;20177;-80
2023/04/20 08:08:10;;;;;;;5.68;2.60;;;6.90;99.90;;;;;;4862312;29;20053;-81
2023/04/20 08:10:36;;;;;;;4.22;2.30;;;6.90;99.90;;;;;;4861294;29;20049;-81
2023/04/20 08:13:03;;;;;;;6.40;2.50;;;6.90;99.90;;;;;;4877239;29;20057;-81
2023/04/20 08:15:30;;;;;;;10.13;2.63;;;6.90;99.90;;;;;;4862452;29;20045;-81
2023/04/20 08:17:57;;;;;;;8.73;2.88;;;6.90;99.90;;;;;;4862206;29;20045;-80
2023/04/20 08:20:23;;;;;;;5.03;2.67;;;6.90;99.90;;;;;;4862381;29;20042;-81
2023/04/20 08:22:51;;;;;;;5.25;2.80;;;7.00;99.90;;;;;;4862208;29;20121;-80
2023/04/20 08:25:18;;;;;;;11.85;3.13;;;7.10;99.90;;;;;;4863845;29;20050;-80
2023/04/20 08:27:45;;;;;;;12.90;3.88;;;7.10;99.90;;;;;;4866967;29;20047;-80
2023/04/20 08:30:12;;;;;;;7.40;3.03;;;7.20;99.90;;;;;;4861793;29;20069;-80
2023/04/20 08:32:39;;;;;;;7.35;2.78;;;7.20;99.90;;;;;;4861973;29;20051;-80
2023/04/20 08:35:07;;;;;;;5.57;2.90;;;7.30;99.90;;;;;;4862168;29;20045;-80
2023/04/20 08:37:34;;;;;;;5.35;3.03;;;7.20;99.90;;;;;;4876911;29;20050;-80
2023/04/20 08:40:00;;;;;;;7.55;3.08;;;7.20;99.90;;;;;;4892002;29;20490;-80
2023/04/20 08:42:27;;;;;;;6.72;3.08;;;7.20;99.90;;;;;;4876806;29;20076;-80
2023/04/20 08:44:54;;;;;;;9.27;3.20;;;7.20;99.90;;;;;;4871270;29;20047;-80
2023/04/20 08:47:21;;;;;;;6.93;3.00;;;7.30;99.90;;;;;;4855269;29;20080;-80
2023/04/20 08:49:53;;;;;;;8.85;3.15;;;7.30;99.90;;;;;;4876605;29;20137;-80
2023/04/20 08:52:20;;;;;;;8.50;3.38;;;7.40;99.90;;;;;;4876666;29;20049;-80
2023/04/20 08:54:46;;;;;;;7.15;3.20;;;7.60;99.90;;;;;;4861564;29;20055;-80
2023/04/20 08:57:13;;;;;;;8.40;3.60;;;7.70;99.90;;;;;;4861165;29;20053;-80
2023/04/20 08:59:40;;;;;;;5.85;3.25;;;7.70;99.90;;;;;;4861188;29;20423;-80
2023/04/20 09:02:09;;;;;;;7.63;3.30;;;7.80;99.90;;;;;;4861175;29;20045;-80
2023/04/20 09:04:36;;;;;;;7.63;3.13;;;7.90;99.90;;;;;;4876617;29;20064;-80
2023/04/20 09:07:03;;;;;;;7.25;3.28;;;8.00;99.90;;;;;;4891668;29;20041;-80
2023/04/20 09:09:29;;;;;;;10.02;3.70;;;7.90;99.90;;;;;;4861770;29;20056;-81
2023/04/20 09:12:03;;;;;;;9.65;3.33;;;7.90;99.90;;;;;;4861336;29;20132;-79
2023/04/20 09:14:40;;;;;;;8.35;3.20;;;7.90;99.90;;;;;;4892853;29;20529;-80
2023/04/20 09:17:07;;;;;;;6.93;3.03;;;7.90;99.90;;;;;;4876296;29;20053;-80
2023/04/20 09:19:34;;;;;;;6.18;3.00;;;7.80;99.90;;;;;;4861459;29;20642;-80
2023/04/20 09:22:02;;;;;;;7.95;3.03;;;7.70;99.90;;;;;;4846258;29;20034;-80
2023/04/20 09:24:34;;;;;;;7.03;3.40;;;7.70;99.90;;;;;;4876694;29;20049;-80
2023/04/20 09:27:13;;;;;;;6.97;2.90;;;7.70;99.90;;;;;;4891962;29;20511;-79
2023/04/20 09:29:39;;;;;;;8.27;3.20;;;7.70;99.90;;;;;;4891661;29;20049;-80
2023/04/20 09:32:06;;;;;;;8.57;2.97;;;7.70;99.90;;;;;;4863847;29;20049;-80
2023/04/20 09:34:43;;;;;;;4.60;2.70;;;7.70;99.90;;;;;;4864940;29;20045;-80
2023/04/20 09:37:14;;;;;;;7.70;3.30;;;7.70;99.90;;;;;;4888942;29;20053;-79
2023/04/20 09:39:43;;;;;;;5.85;3.13;;;7.70;99.90;;;;;;4909776;29;20041;-80
2023/04/20 09:42:14;;;;;;;9.40;3.20;;;7.70;99.90;;;;;;4879802;29;20690;-80
2023/04/20 09:44:42;;;;;;;5.78;3.17;;;7.70;99.90;;;;;;4874502;29;20049;-79
2023/04/20 09:47:20;;;;;;;6.70;3.10;;;7.80;99.90;;;;;;4861025;29;20046;-79
2023/04/20 09:49:46;;;;;;;7.55;3.22;;;7.80;99.90;;;;;;4861237;29;20435;-80
2023/04/20 09:52:17;;;;;;;7.00;3.30;;;7.80;99.90;;;;;;4861187;29;20042;-79
2023/04/20 09:54:44;;;;;;;6.50;3.40;;;7.80;99.90;;;;;;4879223;29;20463;-80
2023/04/20 09:57:12;;;;;;;5.30;3.03;;;7.90;99.90;;;;;;4862519;29;20042;-80
2023/04/20 09:59:45;;;;;;;6.53;3.30;;;7.90;99.90;;;;;;4863820;29;20065;-80
2023/04/20 10:02:12;;;;;;;6.07;3.10;;;7.90;99.90;;;;;;4884265;29;20073;-79
2023/04/20 10:04:55;;;;;;;7.80;3.45;;;7.80;99.90;;;;;;4898262;29;20036;-80
2023/04/20 10:07:27;;;;;;;7.05;3.40;;;7.80;99.90;;;;;;4890195;29;20329;-79
2023/04/20 10:10:14;;;;;;;6.70;3.95;;;7.80;99.90;;;;;;4886335;29;20046;-80
2023/04/20 10:12:51;;;;;;;14.98;3.65;;;7.90;99.90;;;;;;4883032;29;20525;-80
2023/04/20 10:15:18;;;;;;;5.18;3.35;;;7.90;99.90;;;;;;4879345;29;20049;-79
2023/04/20 10:17:45;;;;;;;5.88;3.35;;;7.90;99.90;;;;;;4879195;29;20136;-79
2023/04/20 10:20:22;;;;;;;6.50;3.80;;;8.10;99.90;;;;;;4863599;29;20043;-79
2023/04/20 10:22:51;;;;;;;10.73;3.55;;;8.10;99.90;;;;;;4894421;29;20068;-79
2023/04/20 10:25:23;;;;;;;9.32;3.90;;;8.20;99.90;;;;;;4878943;29;20033;-79
2023/04/20 10:27:55;;;;;;;7.13;3.72;;;8.10;99.90;;;;;;4879252;29;20049;-79
2023/04/20 10:30:24;;;;;;;6.88;3.35;;;8.10;99.90;;;;;;4878659;29;20076;-80
2023/04/20 10:33:08;;;;;;;7.53;3.63;;;8.20;99.90;;;;;;4878777;29;20109;-79
2023/04/20 10:35:49;;;;;;;6.85;3.75;;;8.20;99.90;;;;;;4878695;29;20038;-79
2023/04/20 10:38:28;;;;;;;6.05;3.40;;;8.20;99.90;;;;;;4878612;29;20541;-80
2023/04/20 10:40:55;;;;;;;8.15;3.88;;;8.20;99.90;;;;;;4904850;29;20047;-79
2023/04/20 10:43:22;;;;;;;8.27;3.50;;;8.30;99.90;;;;;;4895526;29;20045;-79
2023/04/20 10:45:49;;;;;;;6.38;3.45;;;8.30;99.90;;;;;;4876405;29;20125;-79
2023/04/20 10:48:16;;;;;;;11.75;3.83;;;8.30;99.90;;;;;;4876648;29;20537;-79
2023/04/20 10:50:43;;;;;;;5.95;3.63;;;8.30;99.90;;;;;;4891474;29;20041;-79
2023/04/20 10:53:21;;;;;;;8.35;3.88;;;8.30;99.90;;;;;;4871283;29;20128;-79
2023/04/20 10:55:57;;;;;;;9.57;4.03;;;8.30;99.90;;;;;;4889294;29;20086;-79
2023/04/20 10:58:24;;;;;;;7.80;4.20;;;8.30;99.90;;;;;;4862759;29;20052;-79
2023/04/20 11:01:00;;;;;;;8.02;3.95;;;8.40;99.90;;;;;;4853664;29;20858;-80
2023/04/20 11:03:27;;;;;;;9.40;4.38;;;8.60;99.90;;;;;;4897659;29;20048;-79
2023/04/20 11:05:56;;;;;;;9.02;3.92;;;8.70;99.90;;;;;;4909264;29;20450;-79
2023/04/20 11:08:22;;;;;;;11.18;4.50;;;8.80;99.90;;;;;;4888848;29;20049;-79
2023/04/20 11:10:49;;;;;;;9.25;4.38;;;8.90;99.90;;;;;;4882645;29;20052;-79
2023/04/20 11:13:21;;;;;;;8.98;4.38;;;8.90;99.90;;;;;;4883425;29;20050;-79
2023/04/20 11:15:48;;;;;;;10.23;4.75;;;9.00;99.90;;;;;;4878160;29;20076;-79
2023/04/20 11:18:14;;;;;;;12.10;4.60;;;9.00;99.90;;;;;;4870940;29;20821;-79
2023/04/20 11:20:52;;;;;;;10.23;4.80;;;8.90;99.90;;;;;;4867147;29;20037;-78
2023/04/20 11:23:20;;;;;;;9.73;4.60;;;8.80;99.90;;;;;;4882875;29;20045;-80
2023/04/20 11:25:55;;;;;;;12.43;5.35;;;8.80;99.90;;;;;;4879919;29;20283;-80
2023/04/20 11:28:22;;;;;;;9.93;5.07;;;8.90;99.90;;;;;;4870192;29;20399;-80
2023/04/20 11:30:49;;;;;;;14.30;5.97;;;9.00;99.90;;;;;;4878161;29;20047;-80
2023/04/20 11:33:27;;;;;;;11.18;5.47;;;9.00;99.90;;;;;;4867671;29;20037;-79
2023/04/20 11:35:55;;;;;;;10.13;5.25;;;9.10;99.90;;;;;;4883606;29;20053;-80
2023/04/20 11:38:30;;;;;;;9.73;4.97;;;9.10;99.90;;;;;;4882266;29;20049;-79
2023/04/20 11:40:59;;;;;;;12.05;5.53;;;9.20;99.90;;;;;;4892610;29;20040;-79
2023/04/20 11:43:25;;;;;;;11.40;5.60;;;9.20;99.90;;;;;;4889328;29;20041;-80
2023/04/20 11:45:52;;;;;;;10.45;5.65;;;9.30;99.90;;;;;;4882358;29;20192;-79
2023/04/20 11:48:19;;;;;;;12.88;5.80;;;9.30;99.90;;;;;;4865261;29;20067;-79
2023/04/20 11:50:46;;;;;;;11.02;5.78;;;9.40;99.90;;;;;;4880842;29;20049;-79
2023/04/20 11:53:13;;;;;;;12.30;5.30;;;9.40;99.90;;;;;;4879878;29;20105;-79
2023/04/20 11:55:40;;;;;;;13.05;5.75;;;9.60;99.90;;;;;;4877848;29;20061;-79
2023/04/20 11:58:07;;;;;;;11.05;5.97;;;9.80;99.90;;;;;;4861634;29;20525;-79
2023/04/20 12:00:34;;;;;;;9.18;5.38;;;9.90;99.90;;;;;;4861726;29;20041;-79
2023/04/20 12:03:01;;;;;;;10.48;5.60;;;10.00;99.90;;;;;;4877134;29;20045;-79
2023/04/20 12:05:28;;;;;;;9.60;5.45;;;10.00;99.90;;;;;;4876835;29;20041;-79
2023/04/20 12:07:55;;;;;;;9.88;5.15;;;10.20;99.90;;;;;;4892549;29;20040;-79
2023/04/20 12:10:21;;;;;;;10.93;5.63;;;10.30;99.90;;;;;;4862041;29;20051;-79
2023/04/20 12:12:48;;;;;;;10.15;5.57;;;10.50;99.90;;;;;;4861673;29;20064;-79
2023/04/20 12:15:15;;;;;;;9.95;5.03;;;10.50;99.90;;;;;;4861573;29;20479;-79
2023/04/20 12:17:42;;;;;;;12.13;5.57;;;10.80;99.90;;;;;;4862815;29;20037;-79
2023/04/20 12:20:10;;;;;;;8.73;5.00;;;11.00;99.90;;;;;;4885780;29;20037;-79
2023/04/20 12:22:37;;;;;;;11.38;6.05;;;11.20;99.90;;;;;;4902280;29;20104;-79
2023/04/20 12:25:05;;;;;;;8.40;4.95;;;11.50;99.90;;;;;;4901697;29;20037;-79
2023/04/20 12:27:32;;;;;;;9.48;5.22;;;11.40;99.90;;;;;;4868477;29;20042;-79
2023/04/20 12:29:58;;;;;;;10.93;5.43;;;11.20;99.90;;;;;;4864783;29;20041;-79
2023/04/20 12:32:25;;;;;;;8.75;5.35;;;11.10;99.90;;;;;;4885880;29;20059;-80
2023/04/20 12:34:52;;;;;;;7.43;4.68;;;11.20;99.90;;;;;;4871493;29;20052;-79
2023/04/20 12:37:19;;;;;;;9.13;5.47;;;11.20;99.90;;;;;;4888988;29;20041;-79
2023/04/20 12:39:46;;;;;;;9.02;5.20;;;11.20;99.90;;;;;;4881460;29;20045;-79
2023/04/20 12:42:13;;;;;;;9.73;5.55;;;11.10;99.90;;;;;;4896775;29;20037;-79
2023/04/20 12:44:39;;;;;;;7.72;4.88;;;11.10;99.90;;;;;;4883601;29;20045;-79
2023/04/20 12:47:06;;;;;;;8.85;5.35;;;10.90;99.90;;;;;;4868638;29;20041;-79
2023/04/20 12:49:33;;;;;;;8.50;4.80;;;10.70;99.90;;;;;;4888921;29;20049;-79
2023/04/20 12:51:59;;;;;;;7.45;4.78;;;10.60;99.90;;;;;;4868789;29;20052;-79
2023/04/20 12:54:26;;;;;;;8.05;5.28;;;10.50;99.90;;;;;;4861079;29;20090;-79
2023/04/20 12:56:53;;;;;;;10.13;5.35;;;10.60;99.90;;;;;;4861269;29;20045;-80